MSC Sinfonia — H8XH — position and weather

sailwx.info

Track history (hours):
 
Tides and Currents Weather Stations Pressure Air Temp Water Temp Dewpoint Dewpoint Depression Visibility Wind Speed Wind Dir Waves Ship Positions

MSC Sinfonia

Last reported at 2015-Jul-05 12:33 UTC. Time now 2015-Jul-05 13:16 UTC.
Position N 54°11' E 012°06'.

Length 251 m; draft 6.8 m.

Type: Passenger vessel. MMSI: 356715971.

Date/timePositionNaut miles runAvg speedWind from/ knotsBaromVisibWave heightAir tempDewpointWater temp
2015-Jul-05 12:33N 54°11' E 012°06'0 0.0
2015-Jul-05 11:33N 54°11' E 012°06'0 0.0
2015-Jul-05 10:33N 54°11' E 012°06'0 0.0
2015-Jul-05 09:33N 54°11' E 012°06'0 0.0
2015-Jul-05 08:09N 54°11' E 012°06'0 0.0
2015-Jul-05 07:12N 54°11' E 012°06'0 0.0
2015-Jul-05 06:30N 54°11' E 012°06'0 0.0
2015-Jul-05 05:26N 54°11' E 012°06'2 1.8
2015-Jul-05 04:33N 54°12' E 012°05'8 8.4
2015-Jul-05 03:33N 54°20' E 011°58'7 7.0
2015-Jul-05 02:33N 54°26' E 012°03'11 9.3
2015-Jul-05 01:25N 54°35' E 012°14'1410.6
2015-Jul-05 00:06N 54°46' E 012°28'810.5
2015-Jul-04 23:19N 54°53' E 012°36'2010.1
2015-Jul-04 21:24N 55°12' E 012°38'810.1
2015-Jul-04 20:33N 55°21' E 012°39'1010.3
2015-Jul-04 19:33N 55°31' E 012°42'1110.7
2015-Jul-04 18:33N 55°41' E 012°41'2 2.3
2015-Jul-04 17:31N 55°43' E 012°38'0 0.0
2015-Jul-04 16:28N 55°43' E 012°38'0 0.0
2015-Jul-04 15:28N 55°43' E 012°38'0 0.0
2015-Jul-04 14:31N 55°43' E 012°38'0 0.0
2015-Jul-04 13:31N 55°43' E 012°38'0 0.0
2015-Jul-04 12:28N 55°43' E 012°38'0 0.0
2015-Jul-04 11:28N 55°43' E 012°38'0 0.0
2015-Jul-04 10:31N 55°43' E 012°38'0 0.0
2015-Jul-04 09:31N 55°43' E 012°38'0 0.0
2015-Jul-04 08:31N 55°43' E 012°38'0 0.0
2015-Jul-04 07:31N 55°43' E 012°38'0 0.0
2015-Jul-04 06:31N 55°43' E 012°38'0 0.1
2015-Jul-04 05:34N 55°43' E 012°38'8 8.2
2015-Jul-04 04:33N 55°50' E 012°44'1211.7
2015-Jul-04 03:33N 56°02' E 012°39'1414.1
2015-Jul-04 02:34N 56°11' E 012°21'1712.8
2015-Jul-04 01:15N 56°24' E 012°01'1013.8
2015-Jul-04 00:32N 56°34' E 011°58'1414.6
2015-Jul-03 23:34N 56°48' E 011°51'1514.6
2015-Jul-03 22:34N 57°01' E 011°41'1414.2
2015-Jul-03 21:33N 57°15' E 011°33'1716.9
2015-Jul-03 20:33N 57°30' E 011°19'1717.2
2015-Jul-03 19:33N 57°42' E 010°55'1917.2
2015-Jul-03 18:28N 57°47' E 010°22'1718.3
2015-Jul-03 17:32N 57°46' E 009°49'  
2015-Jun-29 19:32N 58°17' E 005°30'17016.4
2015-Jun-29 09:10N 57°49' E 010°46'1017.0
2015-Jun-29 08:33N 57°42' E 011°01'1818.0
2015-Jun-29 07:33N 57°29' E 011°25'1817.7
2015-Jun-29 06:33N 57°13' E 011°37'1817.6
2015-Jun-29 05:33N 56°57' E 011°49'1716.2
2015-Jun-29 04:31N 56°40' E 011°48'12415.6
2015-Jun-28 20:33N 54°38' E 011°06'1817.9
2015-Jun-28 19:33N 54°30' E 011°33'1817.9
2015-Jun-28 18:33N 54°20' E 011°59'1111.3
2015-Jun-28 17:33N 54°10' E 012°06'1 0.6
2015-Jun-28 16:04N 54°10' E 012°06'0 0.0
2015-Jun-28 15:31N 54°10' E 012°06'0 0.0
2015-Jun-28 14:25N 54°10' E 012°06'0 0.0
2015-Jun-28 13:28N 54°10' E 012°06'0 0.0
2015-Jun-28 11:22N 54°10' E 012°06'0 0.0
2015-Jun-28 10:31N 54°10' E 012°06'0 0.0
2015-Jun-28 09:22N 54°10' E 012°06'0 0.0
2015-Jun-28 08:31N 54°10' E 012°06'0 0.0
2015-Jun-28 07:31N 54°10' E 012°06'0 0.0
2015-Jun-28 06:31N 54°10' E 012°06'0 0.0
2015-Jun-28 05:19N 54°10' E 012°06'7 7.0
2015-Jun-28 04:19N 54°17' E 012°00'6 7.7
2015-Jun-28 03:33N 54°22' E 011°56'62 8.9
2015-Jun-27 20:33N 55°20' E 012°39'1010.1
2015-Jun-27 19:34N 55°30' E 012°42'1010.3
2015-Jun-27 18:34N 55°40' E 012°41'4 3.5
2015-Jun-27 17:31N 55°43' E 012°38'0 0.0
2015-Jun-27 16:31N 55°43' E 012°38'0 0.0
2015-Jun-27 15:31N 55°43' E 012°38'0 0.0
2015-Jun-27 14:31N 55°43' E 012°38'0 0.0
2015-Jun-27 13:31N 55°43' E 012°38'0 0.0
2015-Jun-27 12:31N 55°43' E 012°38'0 0.0
2015-Jun-27 11:31N 55°43' E 012°38'0 0.0
2015-Jun-27 10:31N 55°43' E 012°38'0 0.0
2015-Jun-27 09:31N 55°43' E 012°38'2 2.0
2015-Jun-27 08:34N 55°44' E 012°41'1111.0
2015-Jun-27 07:33N 55°33' E 012°43'1313.3
2015-Jun-27 06:33N 55°20' E 012°40'1515.1
2015-Jun-27 05:34N 55°15' E 013°05'4117.5
2015-Jun-27 03:13N 55°13' E 014°17'1418.0
2015-Jun-27 02:26N 55°24' E 014°33'1618.1
2015-Jun-27 01:33N 55°32' E 014°57'1818.2
2015-Jun-27 00:33N 55°42' E 015°24'1918.0
2015-Jun-26 23:31N 55°51' E 015°53'33217.5
2015-Jun-26 04:33N 59°38' E 023°28'8917.8
2015-Jun-25 23:33N 59°59' E 026°20'10016.1
2015-Jun-25 17:21N 59°60' E 029°40'911.0
2015-Jun-25 16:33N 59°56' E 029°56'8 7.6
2015-Jun-25 15:33N 59°57' E 030°11'0 0.0
2015-Jun-25 14:33N 59°57' E 030°11'0 0.0
2015-Jun-25 13:33N 59°57' E 030°11'0 0.0
2015-Jun-25 12:33N 59°57' E 030°11'  
Track history (hours):
 
Tides and Currents Weather Stations Pressure Air Temp Water Temp Dewpoint Dewpoint Depression Visibility Wind Speed Wind Dir Waves Ship Positions

MSC Sinfonia

Last reported at 2015-Jul-05 12:33 UTC. Time now 2015-Jul-05 13:16 UTC.
Position N 54°11' E 012°06'.

Length 251 m; draft 6.8 m.

Type: Passenger vessel. MMSI: 356715971.

Date/timePositionNaut miles runAvg speedWind from/ knotsBaromVisibWave heightAir tempDewpointWater temp
2015-Jul-05 12:33N 54°11' E 012°06'0 0.0
2015-Jul-05 11:33N 54°11' E 012°06'0 0.0
2015-Jul-05 10:33N 54°11' E 012°06'0 0.0
2015-Jul-05 09:33N 54°11' E 012°06'0 0.0
2015-Jul-05 08:09N 54°11' E 012°06'0 0.0
2015-Jul-05 07:12N 54°11' E 012°06'0 0.0
2015-Jul-05 06:30N 54°11' E 012°06'0 0.0
2015-Jul-05 05:26N 54°11' E 012°06'2 1.8
2015-Jul-05 04:33N 54°12' E 012°05'8 8.4
2015-Jul-05 03:33N 54°20' E 011°58'7 7.0
2015-Jul-05 02:33N 54°26' E 012°03'11 9.3
2015-Jul-05 01:25N 54°35' E 012°14'1410.6
2015-Jul-05 00:06N 54°46' E 012°28'810.5
2015-Jul-04 23:19N 54°53' E 012°36'2010.1
2015-Jul-04 21:24N 55°12' E 012°38'810.1
2015-Jul-04 20:33N 55°21' E 012°39'1010.3
2015-Jul-04 19:33N 55°31' E 012°42'1110.7
2015-Jul-04 18:33N 55°41' E 012°41'2 2.3
2015-Jul-04 17:31N 55°43' E 012°38'0 0.0
2015-Jul-04 16:28N 55°43' E 012°38'0 0.0
2015-Jul-04 15:28N 55°43' E 012°38'0 0.0
2015-Jul-04 14:31N 55°43' E 012°38'0 0.0
2015-Jul-04 13:31N 55°43' E 012°38'0 0.0
2015-Jul-04 12:28N 55°43' E 012°38'0 0.0
2015-Jul-04 11:28N 55°43' E 012°38'0 0.0
2015-Jul-04 10:31N 55°43' E 012°38'0 0.0
2015-Jul-04 09:31N 55°43' E 012°38'0 0.0
2015-Jul-04 08:31N 55°43' E 012°38'0 0.0
2015-Jul-04 07:31N 55°43' E 012°38'0 0.0
2015-Jul-04 06:31N 55°43' E 012°38'0 0.1
2015-Jul-04 05:34N 55°43' E 012°38'8 8.2
2015-Jul-04 04:33N 55°50' E 012°44'1211.7
2015-Jul-04 03:33N 56°02' E 012°39'1414.1
2015-Jul-04 02:34N 56°11' E 012°21'1712.8
2015-Jul-04 01:15N 56°24' E 012°01'1013.8
2015-Jul-04 00:32N 56°34' E 011°58'1414.6
2015-Jul-03 23:34N 56°48' E 011°51'1514.6
2015-Jul-03 22:34N 57°01' E 011°41'1414.2
2015-Jul-03 21:33N 57°15' E 011°33'1716.9
2015-Jul-03 20:33N 57°30' E 011°19'1717.2
2015-Jul-03 19:33N 57°42' E 010°55'1917.2
2015-Jul-03 18:28N 57°47' E 010°22'1718.3
2015-Jul-03 17:32N 57°46' E 009°49'  
2015-Jun-29 19:32N 58°17' E 005°30'17016.4
2015-Jun-29 09:10N 57°49' E 010°46'1017.0
2015-Jun-29 08:33N 57°42' E 011°01'1818.0
2015-Jun-29 07:33N 57°29' E 011°25'1817.7
2015-Jun-29 06:33N 57°13' E 011°37'1817.6
2015-Jun-29 05:33N 56°57' E 011°49'1716.2
2015-Jun-29 04:31N 56°40' E 011°48'12415.6
2015-Jun-28 20:33N 54°38' E 011°06'1817.9
2015-Jun-28 19:33N 54°30' E 011°33'1817.9
2015-Jun-28 18:33N 54°20' E 011°59'1111.3
2015-Jun-28 17:33N 54°10' E 012°06'1 0.6
2015-Jun-28 16:04N 54°10' E 012°06'0 0.0
2015-Jun-28 15:31N 54°10' E 012°06'0 0.0
2015-Jun-28 14:25N 54°10' E 012°06'0 0.0
2015-Jun-28 13:28N 54°10' E 012°06'0 0.0
2015-Jun-28 11:22N 54°10' E 012°06'0 0.0
2015-Jun-28 10:31N 54°10' E 012°06'0 0.0
2015-Jun-28 09:22N 54°10' E 012°06'0 0.0
2015-Jun-28 08:31N 54°10' E 012°06'0 0.0
2015-Jun-28 07:31N 54°10' E 012°06'0 0.0
2015-Jun-28 06:31N 54°10' E 012°06'0 0.0
2015-Jun-28 05:19N 54°10' E 012°06'7 7.0
2015-Jun-28 04:19N 54°17' E 012°00'6 7.7
2015-Jun-28 03:33N 54°22' E 011°56'62 8.9
2015-Jun-27 20:33N 55°20' E 012°39'1010.1
2015-Jun-27 19:34N 55°30' E 012°42'1010.3
2015-Jun-27 18:34N 55°40' E 012°41'4 3.5
2015-Jun-27 17:31N 55°43' E 012°38'0 0.0
2015-Jun-27 16:31N 55°43' E 012°38'0 0.0
2015-Jun-27 15:31N 55°43' E 012°38'0 0.0
2015-Jun-27 14:31N 55°43' E 012°38'0 0.0
2015-Jun-27 13:31N 55°43' E 012°38'0 0.0
2015-Jun-27 12:31N 55°43' E 012°38'0 0.0
2015-Jun-27 11:31N 55°43' E 012°38'0 0.0
2015-Jun-27 10:31N 55°43' E 012°38'0 0.0
2015-Jun-27 09:31N 55°43' E 012°38'2 2.0
2015-Jun-27 08:34N 55°44' E 012°41'1111.0
2015-Jun-27 07:33N 55°33' E 012°43'1313.3
2015-Jun-27 06:33N 55°20' E 012°40'1515.1
2015-Jun-27 05:34N 55°15' E 013°05'4117.5
2015-Jun-27 03:13N 55°13' E 014°17'1418.0
2015-Jun-27 02:26N 55°24' E 014°33'1618.1
2015-Jun-27 01:33N 55°32' E 014°57'1818.2
2015-Jun-27 00:33N 55°42' E 015°24'1918.0
2015-Jun-26 23:31N 55°51' E 015°53'33217.5
2015-Jun-26 04:33N 59°38' E 023°28'8917.8
2015-Jun-25 23:33N 59°59' E 026°20'10016.1
2015-Jun-25 17:21N 59°60' E 029°40'911.0
2015-Jun-25 16:33N 59°56' E 029°56'8 7.6
2015-Jun-25 15:33N 59°57' E 030°11'0 0.0
2015-Jun-25 14:33N 59°57' E 030°11'0 0.0
2015-Jun-25 13:33N 59°57' E 030°11'0 0.0
2015-Jun-25 12:33N 59°57' E 030°11'  

Dump ship's entire track history